Bernissart, Belgium
Current Conditions -  °F | °C
As of 2:25 AM on Saturday 29 Nov 2014 (Local Time) from EBCV Reporting Station
Broken Clouds Broken Clouds  
Wind Chill: 39°   Ceiling: 14000
Heat Index: 39°   Visibility: 3mi
Dew Point: 37°   Wind: 2mph
Humidity: 93%   Direction: NA
Pressure: 29.83"   Gusts: NA
Location:  50.47°N, 3.65°E
Report Text: EBCV 290125Z AUTO VRB02KT 5000 BKN140/// 04/03 Q1010 WHT
Loading
Personal Weather Stations






























Interactive Weather Map New forecast layout! Learn more

10-Day Weather Forecast

Advertisements
Track Severe Weather on mobile